Time;durP1;ratioP1;P1;durP2;ratioP2;P2;SDS_P1;SDS_P2;PMS_P1;PMS_P2;Temp;Humidity;BMP_temperature;BMP_pressure;BME280_temperature;BME280_humidity;BME280_pressure;Samples;Min_cycle;Max_cycle;Signal;HPM_P1;HPM_P2
2024/02/16 00:00:16;;;;;;;7.63;4.53;;;22.70;99.90;;;;;;5054390;28;20493;-49
2024/02/16 00:02:42;;;;;;;6.60;4.28;;;22.70;99.90;;;;;;5054249;28;20041;-50
2024/02/16 00:05:11;;;;;;;7.65;5.03;;;22.70;99.90;;;;;;5053241;28;20040;-51
2024/02/16 00:07:37;;;;;;;7.47;4.85;;;22.70;99.90;;;;;;5052866;28;20025;-50
2024/02/16 00:10:04;;;;;;;6.18;4.80;;;22.70;99.90;;;;;;5052871;28;20029;-50
2024/02/16 00:12:31;;;;;;;6.57;4.22;;;22.70;99.90;;;;;;5054081;28;20465;-50
2024/02/16 00:14:58;;;;;;;9.30;4.65;;;22.70;99.90;;;;;;5052679;28;20477;-50
2024/02/16 00:17:26;;;;;;;5.57;3.70;;;22.70;99.90;;;;;;5054180;28;20025;-50
2024/02/16 00:19:53;;;;;;;7.15;4.38;;;22.70;99.90;;;;;;5053997;28;20041;-50
2024/02/16 00:22:19;;;;;;;7.70;4.07;;;22.70;99.90;;;;;;5053920;28;20032;-49
2024/02/16 00:24:45;;;;;;;5.93;4.00;;;22.60;99.90;;;;;;5053705;28;20044;-49
2024/02/16 00:27:10;;;;;;;9.07;4.28;;;22.70;99.90;;;;;;5053910;28;20068;-49
2024/02/16 00:29:38;;;;;;;6.20;4.35;;;22.60;99.90;;;;;;5053660;28;20043;-49
2024/02/16 00:32:06;;;;;;;5.63;3.80;;;22.60;99.90;;;;;;5053848;28;20021;-49
2024/02/16 00:34:32;;;;;;;5.70;3.58;;;22.60;99.90;;;;;;5053715;28;20119;-49
2024/02/16 00:36:58;;;;;;;6.43;3.67;;;22.70;99.90;;;;;;5053476;28;20052;-49
2024/02/16 00:39:24;;;;;;;9.80;4.35;;;22.60;99.90;;;;;;5052180;28;20055;-49
2024/02/16 00:41:50;;;;;;;7.28;4.45;;;22.60;99.90;;;;;;5052064;28;20032;-51
2024/02/16 00:44:17;;;;;;;7.53;4.40;;;22.60;99.90;;;;;;5052235;28;20017;-48
2024/02/16 00:46:43;;;;;;;5.82;3.35;;;22.60;99.90;;;;;;5052350;28;20492;-50
2024/02/16 00:49:12;;;;;;;7.15;3.70;;;22.60;99.90;;;;;;5052178;28;20041;-49
2024/02/16 00:51:39;;;;;;;6.18;3.58;;;22.60;99.90;;;;;;5053301;28;20530;-50
2024/02/16 00:54:05;;;;;;;5.80;3.90;;;22.60;99.90;;;;;;5053391;28;20035;-50
2024/02/16 00:56:34;;;;;;;7.95;3.75;;;22.60;99.90;;;;;;5053264;28;20473;-56
2024/02/16 00:59:00;;;;;;;7.15;3.63;;;22.60;99.90;;;;;;5053069;28;20053;-49
2024/02/16 01:01:26;;;;;;;4.97;3.47;;;22.60;99.90;;;;;;5056628;23;20139;-41
2024/02/16 01:03:52;;;;;;;7.47;3.80;;;22.60;99.90;;;;;;5033096;28;20028;-41
2024/02/16 01:06:19;;;;;;;4.85;3.10;;;22.60;99.90;;;;;;5033064;28;20022;-41
2024/02/16 01:08:46;;;;;;;5.78;3.72;;;22.60;99.90;;;;;;5033158;28;20494;-41
2024/02/16 01:11:12;;;;;;;5.07;3.35;;;22.50;99.90;;;;;;5033220;28;20013;-41
2024/02/16 01:13:39;;;;;;;5.78;3.80;;;22.50;99.90;;;;;;5032964;28;20486;-41
2024/02/16 01:16:05;;;;;;;5.80;3.58;;;22.50;99.90;;;;;;5032931;28;20033;-41
2024/02/16 01:18:32;;;;;;;5.28;3.42;;;22.50;99.90;;;;;;5014968;28;20025;-41
2024/02/16 01:20:58;;;;;;;5.65;3.17;;;22.50;99.90;;;;;;5031235;28;20381;-41
2024/02/16 01:23:24;;;;;;;5.38;3.65;;;22.50;99.90;;;;;;5015217;28;20068;-41
2024/02/16 01:25:50;;;;;;;4.95;2.90;;;22.50;99.90;;;;;;5032763;28;20033;-41
2024/02/16 01:28:16;;;;;;;6.15;3.45;;;22.40;99.90;;;;;;5032580;28;20029;-41
2024/02/16 01:30:42;;;;;;;4.60;3.05;;;22.50;99.90;;;;;;5031866;28;20045;-41
2024/02/16 01:33:08;;;;;;;5.53;3.28;;;22.50;99.90;;;;;;5032725;28;20039;-41
2024/02/16 01:35:34;;;;;;;5.82;3.47;;;22.40;99.90;;;;;;5031401;28;20449;-41
2024/02/16 01:38:01;;;;;;;4.50;2.88;;;22.50;99.90;;;;;;5032538;28;20052;-41
2024/02/16 01:40:27;;;;;;;7.10;3.13;;;22.50;99.90;;;;;;5032543;28;20363;-41
2024/02/16 01:42:54;;;;;;;4.63;3.05;;;22.40;99.90;;;;;;5032372;28;20263;-42
2024/02/16 01:45:20;;;;;;;6.70;3.70;;;22.40;99.90;;;;;;5032405;28;20057;-41
2024/02/16 01:47:49;;;;;;;7.13;3.38;;;22.40;99.90;;;;;;5032497;28;20029;-41
2024/02/16 01:50:16;;;;;;;4.25;3.20;;;22.40;99.90;;;;;;5032477;28;20040;-41
2024/02/16 01:52:44;;;;;;;5.28;3.05;;;22.40;99.90;;;;;;5032761;28;20101;-41
2024/02/16 01:55:10;;;;;;;5.30;3.03;;;22.40;99.90;;;;;;5032204;28;20021;-42
2024/02/16 01:57:45;;;;;;;5.90;2.72;;;22.40;99.90;;;;;;5032337;28;20029;-42
2024/02/16 02:00:17;;;;;;;5.38;2.83;;;22.30;99.90;;;;;;5031075;28;20453;-41
2024/02/16 02:02:47;;;;;;;3.95;2.53;;;22.30;99.90;;;;;;5032024;28;20107;-41
2024/02/16 02:05:14;;;;;;;3.13;2.50;;;22.40;99.90;;;;;;5032299;28;20473;-41
2024/02/16 02:07:41;;;;;;;4.00;3.10;;;22.30;99.90;;;;;;5032092;28;20466;-42
2024/02/16 02:10:07;;;;;;;4.80;2.70;;;22.30;99.90;;;;;;5032128;28;20500;-40
2024/02/16 02:12:33;;;;;;;4.93;2.85;;;22.30;99.90;;;;;;5032150;28;20029;-41
2024/02/16 02:14:59;;;;;;;5.63;2.38;;;22.30;99.90;;;;;;5032143;28;20029;-41
2024/02/16 02:17:25;;;;;;;4.38;2.42;;;22.30;99.90;;;;;;5032135;28;20025;-41
2024/02/16 02:19:51;;;;;;;6.70;3.03;;;22.30;99.90;;;;;;5032141;28;20025;-40
2024/02/16 02:22:17;;;;;;;6.00;2.92;;;22.30;99.90;;;;;;5032270;28;20108;-41
2024/02/16 02:24:48;;;;;;;6.65;2.40;;;22.30;99.90;;;;;;5032110;28;20022;-40
2024/02/16 02:27:15;;;;;;;6.28;2.95;;;22.30;99.90;;;;;;5031847;28;20540;-41
2024/02/16 02:29:41;;;;;;;5.53;2.70;;;22.30;99.90;;;;;;5019920;28;20386;-40
2024/02/16 02:32:08;;;;;;;5.07;2.75;;;22.30;99.90;;;;;;5030915;28;20450;-44
2024/02/16 02:34:34;;;;;;;5.60;2.70;;;22.20;99.90;;;;;;5026291;28;20034;-41
2024/02/16 02:37:00;;;;;;;4.65;2.72;;;22.30;99.90;;;;;;5029133;28;20071;-40
2024/02/16 02:39:26;;;;;;;8.57;2.85;;;22.30;99.90;;;;;;5034570;28;20095;-40
2024/02/16 02:41:51;;;;;;;5.10;2.80;;;22.30;99.90;;;;;;5033336;28;20034;-41
2024/02/16 02:44:19;;;;;;;4.30;2.80;;;22.30;99.90;;;;;;5032549;28;20017;-40
2024/02/16 02:46:45;;;;;;;6.45;2.10;;;22.30;99.90;;;;;;5022190;28;20018;-40
2024/02/16 02:49:11;;;;;;;3.83;2.28;;;22.30;99.90;;;;;;5016050;28;20030;-40
2024/02/16 02:51:36;;;;;;;4.40;2.20;;;22.30;99.90;;;;;;5015162;28;20465;-39
2024/02/16 02:54:02;;;;;;;4.05;2.40;;;22.30;99.90;;;;;;5033915;28;20076;-41
2024/02/16 02:56:28;;;;;;;7.65;2.20;;;22.30;99.90;;;;;;5033543;28;20053;-40
2024/02/16 02:58:54;;;;;;;5.93;2.47;;;22.30;99.90;;;;;;5029642;28;20215;-40
2024/02/16 03:01:20;;;;;;;5.95;2.20;;;22.30;99.90;;;;;;5036137;23;20464;-53
2024/02/16 03:03:46;;;;;;;5.88;2.42;;;22.30;99.90;;;;;;5002846;28;20037;-54
2024/02/16 03:06:13;;;;;;;4.78;2.55;;;22.30;99.90;;;;;;4997342;28;20019;-55
2024/02/16 03:08:39;;;;;;;4.53;2.38;;;22.30;99.90;;;;;;4995881;28;20371;-54
2024/02/16 03:11:05;;;;;;;4.63;2.33;;;22.30;99.90;;;;;;5019504;28;20415;-53
2024/02/16 03:13:33;;;;;;;3.67;1.75;;;22.30;99.90;;;;;;5031564;28;20028;-54
2024/02/16 03:15:58;;;;;;;;;;;22.30;99.90;;;;;;5024785;28;20021;-54
2024/02/16 03:18:24;;;;;;;3.85;2.08;;;22.30;99.90;;;;;;5027486;28;19905;-55
2024/02/16 03:20:50;;;;;;;5.55;3.05;;;22.30;99.90;;;;;;5015566;28;20057;-54
2024/02/16 03:23:16;;;;;;;2.15;1.75;;;22.30;99.90;;;;;;5022715;28;20021;-53
2024/02/16 03:25:42;;;;;;;5.07;2.08;;;22.30;99.90;;;;;;5008467;28;20026;-53
2024/02/16 03:28:14;;;;;;;6.00;1.77;;;22.30;99.90;;;;;;5017201;28;20472;-53
2024/02/16 03:30:40;;;;;;;4.78;2.50;;;22.30;99.90;;;;;;5002941;28;20481;-54
2024/02/16 03:33:06;;;;;;;3.28;2.00;;;22.30;99.90;;;;;;5023191;28;20171;-53
2024/02/16 03:35:32;;;;;;;2.88;1.67;;;22.30;99.90;;;;;;4999523;28;20498;-53
2024/02/16 03:37:57;;;;;;;3.13;1.70;;;22.30;99.90;;;;;;5001737;28;20022;-53
2024/02/16 03:40:24;;;;;;;5.90;1.98;;;22.30;99.90;;;;;;4998275;28;20034;-54
2024/02/16 03:42:51;;;;;;;3.73;2.07;;;22.30;99.90;;;;;;5021715;28;20022;-55
2024/02/16 03:45:16;;;;;;;4.90;1.98;;;22.30;99.90;;;;;;4991196;28;20747;-54
2024/02/16 03:47:43;;;;;;;3.42;1.63;;;22.30;99.90;;;;;;5016282;28;20041;-54
2024/02/16 03:50:09;;;;;;;3.45;2.00;;;22.30;99.90;;;;;;5012659;28;20033;-55
2024/02/16 03:52:35;;;;;;;4.22;2.08;;;22.30;99.90;;;;;;4997337;28;20027;-55
2024/02/16 03:55:01;;;;;;;4.07;1.98;;;22.20;99.90;;;;;;4999446;28;20076;-54
2024/02/16 03:57:27;;;;;;;4.90;2.35;;;22.20;99.90;;;;;;5031893;28;20028;-53
2024/02/16 03:59:52;;;;;;;4.82;2.22;;;22.30;99.90;;;;;;5006965;28;20496;-54
2024/02/16 04:02:18;;;;;;;4.90;2.00;;;22.20;99.90;;;;;;5003256;28;20104;-53
2024/02/16 04:04:45;;;;;;;2.50;2.00;;;22.20;99.90;;;;;;5004015;28;20132;-54
2024/02/16 04:07:10;;;;;;;3.33;1.80;;;22.20;99.90;;;;;;5008132;28;20032;-53
2024/02/16 04:09:36;;;;;;;3.72;2.13;;;22.20;99.90;;;;;;5001849;28;20105;-54
2024/02/16 04:12:03;;;;;;;7.43;2.33;;;22.20;99.90;;;;;;5013212;28;20018;-54
2024/02/16 04:14:33;;;;;;;5.07;2.70;;;22.20;99.90;;;;;;5012753;28;20497;-54
2024/02/16 04:16:59;;;;;;;4.43;2.00;;;22.20;99.90;;;;;;5013651;28;20062;-54
2024/02/16 04:19:29;;;;;;;2.28;1.50;;;22.20;99.90;;;;;;5014152;28;20026;-53
2024/02/16 04:21:55;;;;;;;5.45;1.92;;;22.20;99.90;;;;;;5014441;28;20026;-53
2024/02/16 04:24:21;;;;;;;2.70;1.73;;;22.20;99.90;;;;;;5013967;28;20034;-54
2024/02/16 04:26:47;;;;;;;3.60;2.60;;;22.20;99.90;;;;;;5013989;28;20033;-53
2024/02/16 04:29:12;;;;;;;3.50;2.00;;;22.20;99.90;;;;;;5013892;28;20030;-53
2024/02/16 04:31:42;;;;;;;3.53;1.75;;;22.20;99.90;;;;;;5013014;28;20114;-54
2024/02/16 04:34:08;;;;;;;4.03;1.67;;;22.20;99.90;;;;;;5012751;28;20413;-53
2024/02/16 04:36:34;;;;;;;4.10;2.13;;;22.20;99.90;;;;;;5014267;28;20384;-54
2024/02/16 04:39:01;;;;;;;4.28;2.35;;;22.20;99.90;;;;;;5013860;28;20021;-53
2024/02/16 04:41:27;;;;;;;2.83;1.75;;;22.20;99.90;;;;;;5014080;28;20025;-54
2024/02/16 04:43:53;;;;;;;3.63;2.10;;;22.20;99.90;;;;;;5013952;28;20049;-54
2024/02/16 04:46:19;;;;;;;3.55;2.30;;;22.20;99.90;;;;;;5014068;28;20076;-55
2024/02/16 04:48:45;;;;;;;3.40;1.67;;;22.10;99.90;;;;;;5013567;28;20048;-55
2024/02/16 04:51:11;;;;;;;4.53;1.70;;;22.10;99.90;;;;;;5013705;28;20026;-54
2024/02/16 04:53:37;;;;;;;4.20;2.00;;;22.20;99.90;;;;;;5012839;28;20030;-54
2024/02/16 04:56:04;;;;;;;3.22;1.60;;;22.10;99.90;;;;;;5013243;28;20041;-53
2024/02/16 04:58:30;;;;;;;2.58;1.85;;;22.10;99.90;;;;;;5013468;28;20026;-54
2024/02/16 05:00:57;;;;;;;4.68;1.60;;;22.10;99.90;;;;;;5013353;28;20045;-54
2024/02/16 05:03:23;;;;;;;4.70;1.67;;;22.10;99.90;;;;;;5013506;28;20080;-54
2024/02/16 05:05:48;;;;;;;5.15;2.33;;;22.10;99.90;;;;;;5013497;28;20026;-55
2024/02/16 05:08:14;;;;;;;4.35;2.17;;;22.10;99.90;;;;;;5013245;28;20133;-55
2024/02/16 05:10:40;;;;;;;4.25;1.98;;;22.10;99.90;;;;;;5013289;28;20102;-54
2024/02/16 05:13:06;;;;;;;3.83;2.15;;;22.00;99.90;;;;;;5013339;28;20440;-54
2024/02/16 05:15:32;;;;;;;3.03;1.98;;;22.10;99.90;;;;;;5013103;28;20026;-54
2024/02/16 05:17:58;;;;;;;3.60;1.80;;;22.10;99.90;;;;;;5013419;28;20382;-55
2024/02/16 05:20:24;;;;;;;4.28;1.90;;;22.10;99.90;;;;;;5013187;28;20032;-54
2024/02/16 05:22:50;;;;;;;4.00;1.60;;;22.00;99.90;;;;;;5013156;28;20030;-54
2024/02/16 05:25:20;;;;;;;3.35;1.58;;;22.00;99.90;;;;;;5013221;28;20347;-53
2024/02/16 05:27:50;;;;;;;6.80;2.00;;;22.00;99.90;;;;;;5013010;28;20382;-53
2024/02/16 05:30:16;;;;;;;3.80;1.67;;;22.00;99.90;;;;;;5013198;28;20097;-54
2024/02/16 05:32:42;;;;;;;4.88;1.90;;;22.00;99.90;;;;;;5012990;28;20634;-54
2024/02/16 05:35:12;;;;;;;4.50;1.88;;;22.00;99.90;;;;;;5013187;28;20044;-53
2024/02/16 05:37:39;;;;;;;5.05;2.10;;;22.00;99.90;;;;;;5012954;28;20117;-54
2024/02/16 05:40:19;;;;;;;3.93;1.60;;;22.00;99.90;;;;;;5012986;28;20025;-54
2024/02/16 05:42:47;;;;;;;4.70;1.85;;;22.00;99.90;;;;;;5012870;28;20263;-53
2024/02/16 05:45:13;;;;;;;7.60;2.38;;;22.00;99.90;;;;;;5012852;28;20018;-54
2024/02/16 05:47:39;;;;;;;3.13;1.83;;;22.00;99.90;;;;;;5012618;28;20041;-54
2024/02/16 05:50:06;;;;;;;5.25;2.63;;;22.00;99.90;;;;;;5012886;28;20033;-53
2024/02/16 05:52:32;;;;;;;6.78;2.47;;;22.00;99.90;;;;;;5013296;28;20013;-54
2024/02/16 05:54:58;;;;;;;4.70;2.55;;;22.00;99.90;;;;;;5013696;28;20026;-54
2024/02/16 05:57:24;;;;;;;3.80;2.03;;;22.00;99.90;;;;;;5011808;28;20026;-54
2024/02/16 05:59:52;;;;;;;4.07;2.38;;;21.90;99.90;;;;;;5011395;28;20057;-54
2024/02/16 06:02:18;;;;;;;5.15;2.45;;;22.00;99.90;;;;;;4994786;28;20050;-53
2024/02/16 06:04:43;;;;;;;4.40;2.22;;;21.90;99.90;;;;;;4992808;28;20034;-53
2024/02/16 06:07:10;;;;;;;4.38;2.25;;;21.90;99.90;;;;;;4992898;28;20022;-54
2024/02/16 06:09:37;;;;;;;4.20;2.33;;;21.90;99.90;;;;;;4992733;28;20041;-54
2024/02/16 06:12:07;;;;;;;5.13;2.45;;;21.90;99.90;;;;;;4990965;28;20379;-54
2024/02/16 06:14:33;;;;;;;4.38;2.00;;;21.90;99.90;;;;;;4993016;28;20129;-54
2024/02/16 06:16:59;;;;;;;6.10;2.10;;;21.90;99.90;;;;;;4992988;28;20034;-54
2024/02/16 06:19:26;;;;;;;2.85;1.85;;;21.90;99.90;;;;;;4992840;28;20022;-54
2024/02/16 06:21:54;;;;;;;3.95;2.45;;;21.90;99.90;;;;;;4992896;28;20031;-53
2024/02/16 06:24:21;;;;;;;5.55;2.67;;;21.90;99.90;;;;;;4992900;28;20408;-55
2024/02/16 06:26:47;;;;;;;4.73;2.53;;;21.90;99.90;;;;;;4993192;28;20120;-54
2024/02/16 06:29:13;;;;;;;4.45;2.53;;;21.90;99.90;;;;;;4992827;28;20042;-53
2024/02/16 06:31:39;;;;;;;3.95;2.25;;;21.90;99.90;;;;;;4993135;28;20478;-53
2024/02/16 06:34:05;;;;;;;5.00;2.63;;;21.90;99.90;;;;;;4992934;28;20037;-53
2024/02/16 06:36:31;;;;;;;5.60;2.88;;;21.90;99.90;;;;;;4992961;28;20110;-54
2024/02/16 06:38:56;;;;;;;5.95;2.90;;;21.90;99.90;;;;;;4993063;28;20042;-54
2024/02/16 06:41:22;;;;;;;4.72;2.72;;;21.90;99.90;;;;;;4992793;28;20122;-54
2024/02/16 06:43:48;;;;;;;4.18;2.50;;;21.90;99.90;;;;;;4992606;28;20031;-53
2024/02/16 06:46:13;;;;;;;3.97;2.58;;;21.90;99.90;;;;;;4992643;28;20018;-54
2024/02/16 06:48:39;;;;;;;4.72;2.40;;;21.90;99.90;;;;;;4992224;28;20084;-53
2024/02/16 06:51:05;;;;;;;6.28;2.45;;;21.90;99.90;;;;;;4992894;28;20100;-54
2024/02/16 06:53:32;;;;;;;5.20;2.58;;;21.80;99.90;;;;;;4992580;28;20040;-54
2024/02/16 06:55:58;;;;;;;5.47;2.72;;;21.80;99.90;;;;;;4992711;28;20350;-53
2024/02/16 06:58:24;;;;;;;5.05;2.75;;;21.80;99.90;;;;;;5007322;28;20030;-53
2024/02/16 07:00:50;;;;;;;6.45;2.67;;;21.80;99.90;;;;;;4992512;28;20034;-53
2024/02/16 07:03:16;;;;;;;8.60;2.78;;;21.80;99.90;;;;;;4992528;28;20394;-53
2024/02/16 07:05:42;;;;;;;4.85;2.70;;;21.80;99.90;;;;;;4992429;28;20030;-53
2024/02/16 07:08:07;;;;;;;6.07;2.83;;;21.80;99.90;;;;;;4992349;28;20051;-54
2024/02/16 07:10:34;;;;;;;6.90;3.03;;;21.80;99.90;;;;;;4992497;28;20030;-53
2024/02/16 07:13:00;;;;;;;4.47;2.75;;;21.80;99.90;;;;;;4992212;28;20470;-53
2024/02/16 07:15:26;;;;;;;7.55;2.92;;;21.80;99.90;;;;;;4992320;28;20117;-55
2024/02/16 07:17:56;;;;;;;5.20;2.50;;;21.80;99.90;;;;;;4992513;28;20077;-53
2024/02/16 07:20:22;;;;;;;6.43;2.60;;;21.80;99.90;;;;;;4996110;28;20029;-54
2024/02/16 07:22:51;;;;;;;8.23;4.00;;;21.80;99.90;;;;;;4994941;28;20022;-53
2024/02/16 07:25:17;;;;;;;8.13;2.53;;;21.80;99.90;;;;;;4994510;28;20022;-53
2024/02/16 07:27:43;;;;;;;5.65;2.63;;;21.80;99.90;;;;;;4996302;28;20034;-55
2024/02/16 07:30:13;;;;;;;6.60;2.80;;;21.80;99.90;;;;;;4998808;28;20025;-54
2024/02/16 07:32:39;;;;;;;5.00;3.00;;;21.80;99.90;;;;;;5013434;28;20024;-53
2024/02/16 07:35:05;;;;;;;6.00;2.40;;;21.70;99.90;;;;;;5013617;28;20397;-54
2024/02/16 07:37:31;;;;;;;6.40;2.30;;;21.70;99.90;;;;;;5014632;28;20018;-53
2024/02/16 07:39:56;;;;;;;5.15;2.70;;;21.70;99.90;;;;;;5015018;28;20033;-54
2024/02/16 07:42:22;;;;;;;11.02;3.70;;;21.70;99.90;;;;;;5014944;28;20049;-54
2024/02/16 07:44:48;;;;;;;7.40;2.65;;;21.70;99.90;;;;;;5014744;28;20025;-55
2024/02/16 07:47:15;;;;;;;6.38;3.15;;;21.70;99.90;;;;;;5013637;28;20029;-55
2024/02/16 07:49:41;;;;;;;6.57;2.97;;;21.70;99.90;;;;;;5013405;28;20033;-55
2024/02/16 07:52:07;;;;;;;5.03;2.60;;;21.70;99.90;;;;;;5014978;28;20373;-54
2024/02/16 07:54:32;;;;;;;6.20;2.92;;;21.70;99.90;;;;;;5014791;28;20029;-55
2024/02/16 07:56:59;;;;;;;4.93;3.03;;;21.70;99.90;;;;;;5014634;28;20022;-54
2024/02/16 07:59:25;;;;;;;6.63;3.10;;;21.70;99.90;;;;;;5013418;28;20022;-55
2024/02/16 08:01:51;;;;;;;6.60;3.05;;;21.70;99.90;;;;;;5014373;28;20137;-54
2024/02/16 08:04:17;;;;;;;6.97;2.95;;;21.70;99.90;;;;;;5014510;28;20022;-54
2024/02/16 08:06:43;;;;;;;7.32;2.90;;;21.70;99.90;;;;;;5014536;28;20029;-55
2024/02/16 08:09:08;;;;;;;4.43;2.58;;;21.70;99.90;;;;;;5014631;28;20034;-54
2024/02/16 08:11:34;;;;;;;5.63;2.65;;;21.70;99.90;;;;;;5014403;28;20029;-55
2024/02/16 08:14:00;;;;;;;6.72;2.85;;;21.70;99.90;;;;;;5014431;28;20505;-55
2024/02/16 08:16:29;;;;;;;6.22;3.53;;;21.70;99.90;;;;;;5012957;28;20022;-56
2024/02/16 08:18:55;;;;;;;4.28;2.55;;;21.70;99.90;;;;;;5014163;28;20034;-54
2024/02/16 08:21:21;;;;;;;7.65;3.40;;;21.60;99.90;;;;;;5012881;28;20025;-55
2024/02/16 08:23:47;;;;;;;7.95;2.65;;;21.70;99.90;;;;;;5014099;28;20022;-55
2024/02/16 08:26:13;;;;;;;4.93;2.90;;;21.60;99.90;;;;;;5014258;28;20374;-54
2024/02/16 08:28:39;;;;;;;4.75;2.47;;;21.60;99.90;;;;;;5014115;28;20034;-55
2024/02/16 08:31:06;;;;;;;4.57;2.80;;;21.70;99.90;;;;;;5014062;28;20382;-54
2024/02/16 08:33:34;;;;;;;6.45;3.33;;;21.60;99.90;;;;;;5013982;28;20021;-54
2024/02/16 08:36:00;;;;;;;5.75;2.80;;;21.60;99.90;;;;;;5013942;28;20536;-54
2024/02/16 08:38:26;;;;;;;7.20;3.50;;;21.60;99.90;;;;;;5013780;28;20018;-54
2024/02/16 08:40:52;;;;;;;4.60;2.63;;;21.70;99.90;;;;;;5013925;28;20433;-54
2024/02/16 08:43:17;;;;;;;6.30;2.90;;;21.60;99.90;;;;;;5013799;28;20113;-55
2024/02/16 08:45:43;;;;;;;5.35;2.67;;;21.60;99.90;;;;;;5014033;28;20021;-53
2024/02/16 08:48:09;;;;;;;5.75;3.38;;;21.60;99.90;;;;;;5013950;28;20121;-54
2024/02/16 08:50:35;;;;;;;4.00;2.58;;;21.70;99.90;;;;;;5013587;28;20032;-53
2024/02/16 08:53:00;;;;;;;5.90;3.13;;;21.60;99.90;;;;;;5012521;28;20441;-53
2024/02/16 08:55:26;;;;;;;4.60;3.13;;;21.70;99.90;;;;;;5013720;28;20462;-54
2024/02/16 08:57:52;;;;;;;4.45;3.08;;;21.60;99.90;;;;;;5013588;28;20068;-54
2024/02/16 09:00:18;;;;;;;5.72;3.50;;;21.60;99.90;;;;;;5013560;28;20030;-54
2024/02/16 09:02:46;;;;;;;8.32;3.78;;;21.70;99.90;;;;;;5013347;28;20499;-55
2024/02/16 09:05:11;;;;;;;;;;;21.70;99.90;;;;;;5013856;28;20018;-54
2024/02/16 09:07:37;;;;;;;6.45;3.35;;;21.70;99.90;;;;;;5013152;28;19916;-54
2024/02/16 09:10:04;;;;;;;5.07;2.72;;;21.70;99.90;;;;;;5013246;28;20052;-55
2024/02/16 09:12:30;;;;;;;5.25;3.03;;;21.70;99.90;;;;;;5013361;28;20021;-54
2024/02/16 09:14:56;;;;;;;5.82;3.13;;;21.70;99.90;;;;;;5013137;28;20040;-55
2024/02/16 09:17:22;;;;;;;7.97;3.47;;;21.70;99.90;;;;;;5011814;28;20049;-55
2024/02/16 09:19:48;;;;;;;5.28;3.08;;;21.70;99.90;;;;;;5013077;28;20126;-55
2024/02/16 09:22:14;;;;;;;4.60;3.08;;;21.70;99.90;;;;;;5013144;28;20477;-54
2024/02/16 09:24:40;;;;;;;5.57;3.50;;;21.70;99.90;;;;;;5013116;28;20057;-55
2024/02/16 09:27:06;;;;;;;4.70;2.75;;;21.70;99.90;;;;;;5013157;28;20034;-54
2024/02/16 09:29:33;;;;;;;4.63;3.15;;;21.70;99.90;;;;;;5013101;28;20419;-55
2024/02/16 09:31:58;;;;;;;4.50;2.85;;;21.70;99.90;;;;;;5013061;28;20029;-54
2024/02/16 09:34:24;;;;;;;6.28;3.20;;;21.70;99.90;;;;;;5011770;28;20022;-54
2024/02/16 09:36:50;;;;;;;5.55;3.33;;;21.70;99.90;;;;;;5011806;28;20030;-54
2024/02/16 09:39:16;;;;;;;5.40;3.10;;;21.70;99.90;;;;;;5011941;28;20018;-54
2024/02/16 09:41:45;;;;;;;5.30;3.33;;;21.70;99.90;;;;;;5012369;28;20439;-54
2024/02/16 09:44:11;;;;;;;7.47;3.05;;;21.70;99.90;;;;;;5012851;28;20018;-54
2024/02/16 09:46:37;;;;;;;6.30;2.97;;;21.70;99.90;;;;;;5011396;28;20084;-54
2024/02/16 09:49:04;;;;;;;6.90;3.33;;;21.70;99.90;;;;;;5012511;28;20087;-54
2024/02/16 09:51:30;;;;;;;6.03;3.28;;;21.70;99.90;;;;;;4994975;28;20022;-54
2024/02/16 09:53:56;;;;;;;7.88;3.10;;;21.70;99.90;;;;;;5012598;28;20470;-54
2024/02/16 09:56:24;;;;;;;4.13;2.38;;;21.70;99.90;;;;;;5012798;28;20061;-55
2024/02/16 09:58:51;;;;;;;5.47;3.05;;;21.70;99.90;;;;;;5012774;28;20026;-54
2024/02/16 10:01:22;;;;;;;3.33;2.55;;;21.70;99.90;;;;;;5009301;28;20140;-54
2024/02/16 10:03:49;;;;;;;4.50;2.88;;;21.70;99.90;;;;;;5011422;28;20498;-54
2024/02/16 10:06:16;;;;;;;5.65;3.08;;;21.70;99.90;;;;;;5012785;28;20092;-54
2024/02/16 10:08:56;;;;;;;4.75;2.83;;;21.70;99.90;;;;;;5012434;28;20038;-54
2024/02/16 10:11:29;;;;;;;3.60;2.38;;;21.70;99.90;;;;;;5011305;28;20025;-54
2024/02/16 10:14:02;;;;;;;6.28;2.58;;;21.70;99.90;;;;;;5011141;28;20474;-53
2024/02/16 10:16:29;;;;;;;6.07;3.00;;;21.70;99.90;;;;;;5012636;28;20351;-53
2024/02/16 10:18:59;;;;;;;6.05;3.05;;;21.70;99.90;;;;;;4994624;28;20411;-52
2024/02/16 10:21:29;;;;;;;4.25;3.00;;;21.80;99.90;;;;;;5012369;28;20382;-53
2024/02/16 10:24:01;;;;;;;5.38;2.65;;;21.70;99.90;;;;;;5012261;28;20090;-53
2024/02/16 10:26:28;;;;;;;3.95;2.47;;;21.80;99.90;;;;;;5011182;28;20026;-53
2024/02/16 10:28:59;;;;;;;7.38;2.83;;;21.80;99.90;;;;;;5012263;28;20064;-53
2024/02/16 10:31:29;;;;;;;13.85;3.10;;;21.80;99.90;;;;;;4995371;28;20109;-54
2024/02/16 10:34:06;;;;;;;5.35;2.53;;;21.80;99.90;;;;;;4995142;28;20113;-53
2024/02/16 10:36:39;;;;;;;6.70;3.35;;;21.80;99.90;;;;;;5012151;28;20022;-54
2024/02/16 10:39:07;;;;;;;5.13;2.67;;;21.80;99.90;;;;;;5012153;28;20025;-53
2024/02/16 10:41:39;;;;;;;6.00;3.58;;;21.80;99.90;;;;;;5006232;28;20042;-53
2024/02/16 10:44:05;;;;;;;6.68;3.15;;;21.90;99.90;;;;;;5008003;28;20064;-53
2024/02/16 10:46:32;;;;;;;8.85;3.38;;;21.90;99.90;;;;;;5010419;28;20022;-53
2024/02/16 10:48:59;;;;;;;6.47;3.67;;;21.90;99.90;;;;;;5011651;28;20040;-53
2024/02/16 10:51:36;;;;;;;6.72;3.70;;;21.90;99.90;;;;;;5010205;28;20026;-53
2024/02/16 10:54:04;;;;;;;;;;;21.90;99.90;;;;;;5010326;28;20034;-54
2024/02/16 10:56:33;;;;;;;5.18;3.45;;;22.00;99.90;;;;;;5013286;28;19912;-54
2024/02/16 10:59:08;;;;;;;9.18;3.83;;;22.00;99.90;;;;;;4999145;28;20037;-53
2024/02/16 11:01:38;;;;;;;7.80;4.03;;;22.10;99.90;;;;;;5015070;28;20474;-53
2024/02/16 11:04:08;;;;;;;5.95;3.42;;;22.10;99.90;;;;;;5014096;28;20026;-54
2024/02/16 11:06:48;;;;;;;5.88;3.50;;;22.10;99.90;;;;;;5014176;28;20022;-53
2024/02/16 11:09:43;;;;;;;6.75;3.50;;;22.20;99.90;;;;;;5015174;28;20048;-54
2024/02/16 11:12:15;;;;;;;7.72;3.88;;;22.30;99.90;;;;;;5001319;28;20053;-54
2024/02/16 11:14:54;;;;;;;8.65;4.25;;;22.30;99.90;;;;;;5012745;28;20409;-54
2024/02/16 11:17:22;;;;;;;10.70;3.97;;;22.30;99.90;;;;;;5013259;28;20026;-54
2024/02/16 11:19:50;;;;;;;7.05;3.63;;;22.40;99.90;;;;;;5015603;28;20382;-54
2024/02/16 11:22:19;;;;;;;9.40;4.22;;;22.40;99.90;;;;;;5015322;28;20029;-54
2024/02/16 11:24:49;;;;;;;6.82;3.53;;;22.40;99.90;;;;;;5014895;28;20025;-54
2024/02/16 11:27:18;;;;;;;9.07;3.70;;;22.50;99.90;;;;;;5014805;28;20362;-55
2024/02/16 11:29:45;;;;;;;9.05;3.97;;;22.50;99.90;;;;;;5012149;28;20121;-55
2024/02/16 11:32:11;;;;;;;11.10;2.03;;;22.60;99.90;;;;;;5013708;28;20036;-55
2024/02/16 11:34:39;;;;;;;9.63;2.40;;;22.60;99.90;;;;;;5014954;28;20029;-55
2024/02/16 11:37:06;;;;;;;18.20;2.63;;;22.60;99.90;;;;;;5014579;28;20152;-53
2024/02/16 11:39:37;;;;;;;6.53;2.30;;;22.60;99.90;;;;;;5014575;28;20513;-56
2024/02/16 11:42:05;;;;;;;7.68;2.67;;;22.60;99.90;;;;;;5012313;28;20060;-55
2024/02/16 11:44:34;;;;;;;;;;;22.60;99.90;;;;;;5014532;28;20014;-55
2024/02/16 11:47:03;;;;;;;5.45;1.63;;;22.70;99.90;;;;;;5014320;28;19948;-55
2024/02/16 11:49:29;;;;;;;5.22;1.75;;;22.70;99.90;;;;;;5013879;28;20447;-55
2024/02/16 11:52:04;;;;;;;6.82;2.30;;;22.70;99.90;;;;;;5014368;28;20363;-54
2024/02/16 11:54:31;;;;;;;6.75;2.53;;;22.70;99.90;;;;;;5011894;28;20044;-54
2024/02/16 11:56:57;;;;;;;11.00;3.45;;;22.70;99.90;;;;;;5014483;28;20046;-54
2024/02/16 11:59:23;;;;;;;6.47;2.45;;;22.70;99.90;;;;;;5014686;28;20482;-54
2024/02/16 12:01:56;;;;;;;8.73;3.50;;;22.70;99.90;;;;;;5010325;28;20053;-55
2024/02/16 12:04:23;;;;;;;13.57;4.45;;;22.70;99.90;;;;;;5012681;28;20022;-55
2024/02/16 12:07:00;;;;;;;8.57;3.40;;;22.80;99.90;;;;;;5012735;28;20462;-53
2024/02/16 12:09:27;;;;;;;9.73;4.57;;;22.80;99.90;;;;;;5013803;28;20505;-55
2024/02/16 12:11:54;;;;;;;11.25;5.18;;;22.80;99.90;;;;;;5012059;28;20022;-54
2024/02/16 12:14:22;;;;;;;9.32;5.00;;;22.80;99.90;;;;;;5013420;28;20076;-55
2024/02/16 12:16:55;;;;;;;10.52;5.28;;;22.90;99.90;;;;;;5014125;28;20084;-55
2024/02/16 12:19:22;;;;;;;10.05;5.65;;;22.90;99.90;;;;;;5011881;28;20022;-54
2024/02/16 12:21:57;;;;;;;8.93;5.22;;;22.90;99.90;;;;;;5014752;28;20092;-53
2024/02/16 12:24:23;;;;;;;12.15;5.70;;;23.00;99.90;;;;;;5011767;28;20017;-56
2024/02/16 12:26:49;;;;;;;10.82;5.35;;;23.00;99.90;;;;;;5018628;28;20022;-55
2024/02/16 12:29:16;;;;;;;8.75;5.20;;;23.00;99.90;;;;;;5014251;28;20038;-55
2024/02/16 12:31:44;;;;;;;11.68;5.82;;;23.10;99.90;;;;;;5014088;28;20018;-56
2024/02/16 12:34:10;;;;;;;17.05;6.53;;;23.10;99.90;;;;;;5014014;28;20036;-57
2024/02/16 12:36:39;;;;;;;14.77;6.53;;;23.10;99.90;;;;;;5013970;28;20041;-55
2024/02/16 12:39:06;;;;;;;12.38;5.78;;;23.10;99.90;;;;;;5012715;28;20048;-57
2024/02/16 12:41:35;;;;;;;11.32;4.60;;;23.10;99.90;;;;;;5012570;28;20022;-55
2024/02/16 12:44:02;;;;;;;16.63;4.43;;;23.20;99.90;;;;;;5013802;28;20022;-57
2024/02/16 12:46:30;;;;;;;10.10;5.00;;;23.20;99.90;;;;;;5013986;28;20022;-55